Time;durP1;ratioP1;P1;durP2;ratioP2;P2;SDS_P1;SDS_P2;PMS_P1;PMS_P2;Temp;Humidity;BMP_temperature;BMP_pressure;BME280_temperature;BME280_humidity;BME280_pressure;Samples;Min_cycle;Max_cycle;Signal;HPM_P1;HPM_P2
2023/11/18 00:00:12;;;;;;;16.70;4.35;;;14.30;76.50;;;;;;5051695;28;20080;-77
2023/11/18 00:02:38;;;;;;;10.27;4.18;;;14.20;76.20;;;;;;5051941;28;20036;-78
2023/11/18 00:05:07;;;;;;;17.00;4.35;;;14.10;76.20;;;;;;5051893;28;20022;-75
2023/11/18 00:07:32;;;;;;;15.98;5.10;;;14.10;76.50;;;;;;5052012;28;20040;-77
2023/11/18 00:09:58;;;;;;;19.00;4.30;;;14.10;76.40;;;;;;5051645;28;20047;-76
2023/11/18 00:12:24;;;;;;;15.20;4.18;;;14.00;76.30;;;;;;5051342;28;20064;-77
2023/11/18 00:14:50;;;;;;;16.25;4.28;;;14.00;76.40;;;;;;5050172;28;20412;-76
2023/11/18 00:17:16;;;;;;;18.40;4.05;;;13.90;76.30;;;;;;5051127;28;20037;-76
2023/11/18 00:19:42;;;;;;;14.45;4.00;;;13.90;76.40;;;;;;5032404;28;20033;-78
2023/11/18 00:22:08;;;;;;;14.25;3.80;;;13.90;76.60;;;;;;5051350;28;20033;-77
2023/11/18 00:24:34;;;;;;;13.98;4.03;;;13.90;76.60;;;;;;5051342;28;20033;-76
2023/11/18 00:27:05;;;;;;;19.02;4.97;;;13.80;76.30;;;;;;5052001;28;20037;-78
2023/11/18 00:29:38;;;;;;;15.75;4.18;;;13.80;76.50;;;;;;5051127;28;20115;-76
2023/11/18 00:32:04;;;;;;;13.77;4.13;;;13.70;76.30;;;;;;5051517;28;20029;-78
2023/11/18 00:34:30;;;;;;;9.82;3.35;;;13.70;76.50;;;;;;5051766;28;20337;-77
2023/11/18 00:36:59;;;;;;;10.63;3.90;;;13.70;76.40;;;;;;5051308;28;20052;-76
2023/11/18 00:39:27;;;;;;;13.20;3.90;;;13.60;76.40;;;;;;5051666;28;20471;-77
2023/11/18 00:41:55;;;;;;;11.40;3.35;;;13.60;76.30;;;;;;5051710;28;20098;-76
2023/11/18 00:44:21;;;;;;;10.35;3.70;;;13.50;76.30;;;;;;5051562;28;20500;-77
2023/11/18 00:46:47;;;;;;;15.60;4.07;;;13.50;76.40;;;;;;5054363;28;20036;-77
2023/11/18 00:49:13;;;;;;;17.05;3.75;;;13.50;76.60;;;;;;5055572;28;20033;-77
2023/11/18 00:51:38;;;;;;;11.25;3.38;;;13.50;76.30;;;;;;5055593;28;20033;-77
2023/11/18 00:54:08;;;;;;;17.08;4.50;;;13.50;76.60;;;;;;5055704;28;20484;-76
2023/11/18 00:56:35;;;;;;;12.45;4.10;;;13.50;76.60;;;;;;5055667;28;20029;-77
2023/11/18 00:59:01;;;;;;;13.93;3.80;;;13.50;76.60;;;;;;5055337;28;20521;-77
2023/11/18 01:01:27;;;;;;;13.48;3.88;;;13.50;76.80;;;;;;5055386;28;20111;-76
2023/11/18 01:03:53;;;;;;;12.65;3.85;;;13.60;76.80;;;;;;5055458;28;20195;-77
2023/11/18 01:06:19;;;;;;;9.75;3.50;;;13.60;76.80;;;;;;5055362;28;20033;-76
2023/11/18 01:08:46;;;;;;;13.18;3.90;;;13.50;76.50;;;;;;5054659;28;20110;-76
2023/11/18 01:11:18;;;;;;;13.85;4.90;;;13.50;76.40;;;;;;5054989;28;20033;-77
2023/11/18 01:13:48;;;;;;;15.23;4.40;;;13.40;76.50;;;;;;5054828;28;20068;-76
2023/11/18 01:16:15;;;;;;;11.32;4.18;;;13.40;76.70;;;;;;5055109;28;20032;-77
2023/11/18 01:18:41;;;;;;;16.20;3.88;;;13.30;76.50;;;;;;5054946;28;20037;-78
2023/11/18 01:21:10;;;;;;;10.13;3.28;;;13.30;76.50;;;;;;5054914;28;20058;-77
2023/11/18 01:23:42;;;;;;;11.70;3.55;;;13.30;76.50;;;;;;5054968;28;20091;-76
2023/11/18 01:26:08;;;;;;;12.18;3.38;;;13.20;76.30;;;;;;5054740;28;20029;-76
2023/11/18 01:28:39;;;;;;;12.75;3.60;;;13.20;75.90;;;;;;5054398;28;20053;-77
2023/11/18 01:31:05;;;;;;;10.38;3.45;;;13.20;75.80;;;;;;5054856;28;20056;-76
2023/11/18 01:33:32;;;;;;;10.52;3.15;;;13.10;75.60;;;;;;5054647;28;20053;-77
2023/11/18 01:35:58;;;;;;;11.75;4.22;;;13.10;75.40;;;;;;5055208;28;20033;-76
2023/11/18 01:38:26;;;;;;;8.38;2.88;;;13.10;75.00;;;;;;5053210;28;20029;-77
2023/11/18 01:40:53;;;;;;;10.23;3.40;;;13.00;74.80;;;;;;5054648;28;20037;-77
2023/11/18 01:43:19;;;;;;;10.68;3.53;;;13.00;74.70;;;;;;5054518;28;20509;-76
2023/11/18 01:45:46;;;;;;;10.55;3.00;;;13.10;75.00;;;;;;5054260;28;20033;-74
2023/11/18 01:48:13;;;;;;;10.05;3.03;;;13.10;74.90;;;;;;5054341;28;20041;-76
2023/11/18 01:50:41;;;;;;;10.90;3.40;;;13.00;74.60;;;;;;5054773;28;20033;-77
2023/11/18 01:53:07;;;;;;;12.15;3.10;;;13.00;74.70;;;;;;5054425;28;20041;-76
2023/11/18 01:55:34;;;;;;;10.15;3.20;;;13.00;74.60;;;;;;5055290;28;20380;-77
2023/11/18 01:58:07;;;;;;;8.40;3.17;;;13.00;74.30;;;;;;5061041;28;20086;-77
2023/11/18 02:00:41;;;;;;;8.30;3.08;;;13.00;74.20;;;;;;5058247;28;20032;-77
2023/11/18 02:03:07;;;;;;;8.85;3.05;;;13.00;74.30;;;;;;5054880;28;20029;-77
2023/11/18 02:05:34;;;;;;;7.63;2.88;;;13.00;74.60;;;;;;5054710;28;20099;-75
2023/11/18 02:08:04;;;;;;;8.40;2.90;;;13.00;74.00;;;;;;5054495;28;20045;-75
2023/11/18 02:10:30;;;;;;;11.38;3.70;;;13.00;74.10;;;;;;5054208;28;20060;-76
2023/11/18 02:13:24;;;;;;;14.65;3.30;;;12.90;73.90;;;;;;5053682;28;20124;-75
2023/11/18 02:15:54;;;;;;;11.05;3.25;;;12.80;73.90;;;;;;5053846;28;20163;-77
2023/11/18 02:18:21;;;;;;;10.50;3.33;;;12.80;74.30;;;;;;5053795;28;20056;-75
2023/11/18 02:20:48;;;;;;;9.07;2.85;;;12.80;74.20;;;;;;5053866;28;20059;-76
2023/11/18 02:23:17;;;;;;;11.32;3.28;;;12.80;74.20;;;;;;5053728;28;20396;-77
2023/11/18 02:25:47;;;;;;;10.45;3.30;;;12.80;74.40;;;;;;5053896;28;20025;-75
2023/11/18 02:28:13;;;;;;;9.73;3.75;;;12.90;74.60;;;;;;5053537;28;20067;-75
2023/11/18 02:30:42;;;;;;;8.90;3.35;;;12.80;74.50;;;;;;5053643;28;20056;-77
2023/11/18 02:33:33;;;;;;;14.52;3.60;;;12.80;75.00;;;;;;5053412;28;20087;-76
2023/11/18 02:36:14;;;;;;;11.27;3.60;;;12.70;74.80;;;;;;5054086;28;20062;-75
2023/11/18 02:38:46;;;;;;;9.52;3.83;;;12.70;74.90;;;;;;5053400;28;20072;-75
2023/11/18 02:41:15;;;;;;;9.13;2.95;;;12.60;74.80;;;;;;5053543;28;20076;-76
2023/11/18 02:43:41;;;;;;;12.65;3.40;;;12.60;75.20;;;;;;5053515;28;20025;-75
2023/11/18 02:46:07;;;;;;;11.75;3.45;;;12.60;75.10;;;;;;5053460;28;20045;-77
2023/11/18 02:48:35;;;;;;;15.38;3.83;;;12.60;75.20;;;;;;5053349;28;20041;-77
2023/11/18 02:51:01;;;;;;;10.07;3.30;;;12.50;75.20;;;;;;5035456;28;20439;-76
2023/11/18 02:53:27;;;;;;;9.05;2.92;;;12.50;75.50;;;;;;5053264;28;20493;-75
2023/11/18 02:55:53;;;;;;;7.50;3.22;;;12.50;75.30;;;;;;5052894;28;20043;-76
2023/11/18 02:58:20;;;;;;;7.57;3.08;;;12.40;75.30;;;;;;5053344;28;20025;-77
2023/11/18 03:00:46;;;;;;;12.15;3.40;;;12.40;75.40;;;;;;5053208;28;20124;-76
2023/11/18 03:03:13;;;;;;;9.57;3.42;;;12.30;75.70;;;;;;5053236;28;20036;-76
2023/11/18 03:05:39;;;;;;;10.45;3.33;;;12.40;75.80;;;;;;5052776;28;20029;-76
2023/11/18 03:08:08;;;;;;;9.55;3.92;;;12.40;75.70;;;;;;5051897;28;20060;-75
2023/11/18 03:10:35;;;;;;;10.90;3.70;;;12.40;75.60;;;;;;5052224;28;20040;-75
2023/11/18 03:13:01;;;;;;;11.93;3.65;;;12.30;75.50;;;;;;5052421;28;20118;-77
2023/11/18 03:15:28;;;;;;;11.73;3.42;;;12.40;75.70;;;;;;5052753;28;20040;-76
2023/11/18 03:17:54;;;;;;;10.38;4.22;;;12.40;75.80;;;;;;5052667;28;20060;-76
2023/11/18 03:20:22;;;;;;;9.52;3.75;;;12.40;75.90;;;;;;5052636;28;20107;-76
2023/11/18 03:22:49;;;;;;;12.88;3.90;;;12.30;75.60;;;;;;5052738;28;20033;-75
2023/11/18 03:25:16;;;;;;;9.52;3.88;;;12.20;75.70;;;;;;5034756;28;20483;-77
2023/11/18 03:27:44;;;;;;;8.50;3.58;;;12.10;75.50;;;;;;5052492;28;20051;-77
2023/11/18 03:30:10;;;;;;;11.05;3.90;;;12.10;75.60;;;;;;5051966;28;20087;-75
2023/11/18 03:32:37;;;;;;;10.52;3.45;;;12.10;75.70;;;;;;5052445;28;20499;-76
2023/11/18 03:35:08;;;;;;;9.65;3.30;;;12.00;75.50;;;;;;5052700;28;20060;-77
2023/11/18 03:37:35;;;;;;;11.38;3.50;;;12.00;75.80;;;;;;5052554;28;20116;-77
2023/11/18 03:40:01;;;;;;;9.25;3.60;;;12.10;75.90;;;;;;5052588;28;20029;-75
2023/11/18 03:42:27;;;;;;;7.57;3.25;;;12.00;75.60;;;;;;5052131;28;20120;-76
2023/11/18 03:44:53;;;;;;;12.10;3.75;;;12.00;75.60;;;;;;5052430;28;20029;-76
2023/11/18 03:47:19;;;;;;;8.73;3.80;;;12.00;75.50;;;;;;5053194;28;20048;-76
2023/11/18 03:49:44;;;;;;;10.63;3.88;;;11.90;75.70;;;;;;5052988;28;20029;-76
2023/11/18 03:52:10;;;;;;;12.27;3.90;;;11.90;75.80;;;;;;5052194;28;20489;-76
2023/11/18 03:54:36;;;;;;;10.93;3.83;;;11.90;76.10;;;;;;5052521;28;20075;-76
2023/11/18 03:57:01;;;;;;;13.18;3.85;;;11.90;76.00;;;;;;5051677;28;20037;-75
2023/11/18 03:59:27;;;;;;;11.48;3.75;;;11.90;76.10;;;;;;5051884;28;20033;-76
2023/11/18 04:01:53;;;;;;;10.63;3.45;;;11.80;76.00;;;;;;5052237;28;20047;-77
2023/11/18 04:04:18;;;;;;;9.25;3.33;;;11.90;76.00;;;;;;5052099;28;20040;-77
2023/11/18 04:06:46;;;;;;;9.00;3.22;;;11.90;76.00;;;;;;5052254;28;20495;-76
2023/11/18 04:09:13;;;;;;;8.27;3.58;;;11.90;76.20;;;;;;5051926;28;20041;-77
2023/11/18 04:11:38;;;;;;;10.55;3.40;;;11.90;76.20;;;;;;5051879;28;20091;-76
2023/11/18 04:14:04;;;;;;;9.65;4.30;;;12.00;76.30;;;;;;5051653;28;20049;-77
2023/11/18 04:16:30;;;;;;;11.55;3.80;;;11.90;76.20;;;;;;5051756;28;20021;-76
2023/11/18 04:18:55;;;;;;;9.98;3.53;;;11.90;76.10;;;;;;5051482;28;20103;-75
2023/11/18 04:21:21;;;;;;;11.85;3.65;;;11.90;76.20;;;;;;5056008;28;20044;-77
2023/11/18 04:23:47;;;;;;;12.93;4.43;;;11.90;76.10;;;;;;5038649;28;20374;-76
2023/11/18 04:26:13;;;;;;;9.23;3.53;;;11.80;76.10;;;;;;5055546;28;20044;-75
2023/11/18 22:29:14;;;;;;;26.30;15.15;;;12.20;62.50;;;;;;5048950;22;20518;-81
2023/11/18 22:31:40;;;;;;;24.50;15.27;;;12.20;62.10;;;;;;5034428;28;20041;-82
2023/11/18 22:34:06;;;;;;;24.15;16.02;;;12.20;62.10;;;;;;5034524;28;20030;-81
2023/11/18 22:36:32;;;;;;;21.40;14.90;;;12.20;62.30;;;;;;5016780;28;20421;-80
2023/11/18 22:38:58;;;;;;;23.88;15.35;;;12.20;62.00;;;;;;5034153;28;20036;-79
2023/11/18 22:41:24;;;;;;;24.50;15.15;;;12.10;62.20;;;;;;5034341;28;20109;-82
2023/11/18 22:43:50;;;;;;;24.85;15.30;;;12.10;62.40;;;;;;5034622;28;20461;-80
2023/11/18 22:46:16;;;;;;;20.02;14.23;;;12.10;62.40;;;;;;5040039;28;20037;-80
2023/11/18 22:48:45;;;;;;;21.85;14.75;;;12.10;62.50;;;;;;5037270;28;20046;-81
2023/11/18 22:51:13;;;;;;;18.48;12.77;;;12.00;62.40;;;;;;5034955;28;20057;-81
2023/11/18 22:53:42;;;;;;;21.65;12.75;;;11.90;62.20;;;;;;5034295;28;20041;-79
2023/11/18 22:56:10;;;;;;;19.02;12.13;;;12.00;62.80;;;;;;5034075;28;20034;-81
2023/11/18 22:58:39;;;;;;;17.88;11.68;;;11.90;62.30;;;;;;5033819;28;20041;-80
2023/11/18 23:01:10;;;;;;;18.73;10.90;;;11.90;62.20;;;;;;5033563;28;20029;-80
2023/11/18 23:03:38;;;;;;;15.50;10.48;;;11.90;62.30;;;;;;5033841;28;20135;-79
2023/11/18 23:06:19;;;;;;;15.88;10.48;;;11.90;62.20;;;;;;5033916;28;20446;-79
2023/11/18 23:08:46;;;;;;;17.88;11.30;;;11.80;62.50;;;;;;5032929;28;20048;-80
2023/11/18 23:11:13;;;;;;;19.00;10.75;;;11.80;62.40;;;;;;5033535;28;20087;-80
2023/11/18 23:13:39;;;;;;;19.13;11.23;;;11.80;62.40;;;;;;5033596;28;20366;-78
2023/11/18 23:16:11;;;;;;;19.48;11.98;;;11.80;62.40;;;;;;5033072;28;20025;-75
2023/11/18 23:18:40;;;;;;;22.13;15.35;;;11.70;62.60;;;;;;5033424;28;20338;-77
2023/11/18 23:21:06;;;;;;;26.92;20.80;;;11.80;62.70;;;;;;5033852;28;20036;-78
2023/11/18 23:23:32;;;;;;;36.58;25.98;;;11.70;62.50;;;;;;5033492;28;20030;-75
2023/11/18 23:26:00;;;;;;;28.85;21.95;;;11.80;62.80;;;;;;5032758;28;20391;-76
2023/11/18 23:28:26;;;;;;;28.88;19.63;;;11.70;62.80;;;;;;5033080;28;20446;-79
2023/11/18 23:30:52;;;;;;;30.13;19.75;;;11.60;62.80;;;;;;5033438;28;20052;-77
2023/11/18 23:33:18;;;;;;;23.98;16.90;;;11.60;63.00;;;;;;5033657;28;20151;-76
2023/11/18 23:35:45;;;;;;;24.02;16.05;;;11.60;63.30;;;;;;5033069;28;20045;-77
2023/11/18 23:38:10;;;;;;;29.77;16.85;;;11.60;63.20;;;;;;5032940;28;20031;-77
2023/11/18 23:40:37;;;;;;;25.52;16.55;;;11.70;63.40;;;;;;5032756;28;20038;-77
2023/11/18 23:43:03;;;;;;;27.92;16.70;;;11.70;63.50;;;;;;5032740;28;20033;-78
2023/11/18 23:45:30;;;;;;;26.58;17.35;;;11.70;63.30;;;;;;5032898;28;20040;-77
2023/11/18 23:47:57;;;;;;;26.15;16.95;;;11.70;63.10;;;;;;5032696;28;20444;-78
2023/11/18 23:50:30;;;;;;;25.05;18.92;;;11.70;63.30;;;;;;5032911;28;20046;-78
2023/11/18 23:52:59;;;;;;;28.65;19.95;;;11.70;63.60;;;;;;5032660;28;20143;-78
2023/11/18 23:55:25;;;;;;;24.02;18.25;;;11.70;63.30;;;;;;5033112;28;20045;-76
2023/11/18 23:57:51;;;;;;;25.33;18.58;;;11.60;62.90;;;;;;5033210;28;20098;-77
